Capitol Logistics 905


KMIA
Miami International Airport
Miami, Florida, US
EBLG
Liège Airport
Liege, , BE

Route Details

Aircraft Information
Primary: Boeing 747-400BCF
Backup: Boeing 777-200LRF
Route Data
Distance: 4074nm
Sched. Duration: 8h 30m
Avg. Duration: 8h 78m (+49m)
Times Flown: 10
Recm'd Route: Not Available
Planned Altitude: 32,000ft
Origin Wx: KMIA 221453Z 00000KT 10SM SCT029 SCT250 22/15 A3007 RMK AO2 SLP184 T02220150 53014 $
Dest. Wx: EBLG 221450Z 29005KT 250V320 9999 FEW022 06/01 Q0995 NOSIG
Notes:

Financial History
Total Freight: 1,372,666lbs
Average Load: 137,267lbs/flt
Fuel Used: 1,659,305lbs
Avg. Fuel Used: 165,931lbs/flt
Fuel Expense: $2,040,945
Avg. Fuel Expense: $204,095
Avg. Fuel Cost: $1.23/lbs
Total Gross Income: $3,420,672
Pilot Pay: $1,880
Total Expenses: $369,952
Total Revenue: $989,504
Average Revenue: $342,067.16